Flight Track Log - Related Links

Times and Time Zones

All times are in EDT time to prevent confusion due to time zone crossing. See the ASQ2532 flight status page for this flight to view local times or setup timezone preferences in your user account.

Time Position Orientation Groundspeed Altitude Reporting Facility
EDT Latitude Longitude Course Direction KTS MPH feet Rate Location/Type
Sun 11:16:35 AM 32.9167 -97.0333 16° North 162 186 1,600  Level Dallas / Fort Worth TRACON
Sun 11:17:41 AM 32.9667 -97.0167 16° North 235 270 4,300 2,882 Climbing Dallas / Fort Worth TRACON
Sun 11:18:42 AM 33.0167 -96.9667 40° Northeast 268 308 7,700 1,866 Climbing Dallas / Fort Worth TRACON
Sun 11:21:10 AM 32.9672 -96.7300 104° East 317 365 10,800 1,702 Climbing Fort Worth Center
Sun 11:22:10 AM 32.9417 -96.6286 107° East 345 397 13,600 2,500 Climbing Fort Worth Center
Sun 11:23:10 AM 32.9094 -96.5003 107° East 360 414 15,800 1,800 Climbing Fort Worth Center
Sun 11:24:10 AM 32.8814 -96.3942 107° East 373 429 17,200 1,388 Climbing Fort Worth Center
Sun 11:25:11 AM 32.8656 -96.2511 97° East 389 448 18,600 900 Climbing Fort Worth Center
Sun 11:26:10 AM 32.8539 -96.1275 96° East 401 461 19,000 202 Climbing Fort Worth Center
Sun 11:27:10 AM 32.8292 -95.9697 101° East 432 497 19,000  Level Fort Worth Center
Sun 11:28:10 AM 32.8069 -95.8364 101° East 448 516 19,000  Level Fort Worth Center
Sun 11:29:10 AM 32.7775 -95.6789 102° East 448 516 19,000  Level Fort Worth Center
Sun 11:30:10 AM 32.7483 -95.5289 103° East 454 522 19,000  Level Fort Worth Center
Sun 11:31:10 AM 32.7272 -95.3861 100° East 448 516 19,000  Level Fort Worth Center
Sun 11:32:10 AM 32.6997 -95.2411 103° East 448 516 19,000  Level Fort Worth Center
Sun 11:33:10 AM 32.6744 -95.0958 102° East 448 516 19,000  Level Fort Worth Center
Sun 11:34:10 AM 32.6464 -94.9511 103° East 448 516 19,000  Level Fort Worth Center
Sun 11:35:10 AM 32.6228 -94.8039 101° East 448 516 19,000 -50 Level Fort Worth Center
Sun 11:36:10 AM 32.5989 -94.6614 101° East 448 516 18,900 -1,252 Descending Fort Worth Center
Sun 11:37:05 AM 32.5753 -94.5414 103° East 417 480 16,600 -2,782 Descending Fort Worth Center
Sun 11:38:00 AM 32.5536 -94.4189 102° East 404 465 13,800 -2,870 Descending Fort Worth Center
Sun 11:39:00 AM 32.5214 -94.3017 108° East 373 429 11,100 -1,884 Descending Fort Worth Center
Sun 11:40:01 AM 32.4939 -94.2017 108° East 303 349 10,000 -1,525 Descending Fort Worth Center
Sun 11:41:02 AM 32.4664 -94.1067 109° East 293 337 8,000 -1,983 Descending Fort Worth Center
Sun 11:42:02 AM 32.4433 -94.0189 107° East 281 323 6,000 -1,983 Descending Fort Worth Center
Sun 11:43:03 AM 32.4200 -93.9361 108° East 270 311 4,000 -1,869 Descending Fort Worth Center
Sun 11:44:04 AM 32.3722 -93.8664 129° Southeast 250 288 2,200 -942 Descending Fort Worth Center
Sun 11:45:04 AM 32.3292 -93.8214 139° Southeast 193 222 2,100 -95 Descending Fort Worth Center
Sun 11:46:10 AM 32.3592 -93.7786 50° Northeast 137 158 2,000 -393 Descending Fort Worth Center
Sun 11:47:06 AM 32.3972 -93.7917 344° North 146 168 1,300 -750 Descending Fort Worth Center
Sun 11:48:10 AM 32.4292 -93.8125 331° Northwest 123 142 500 -435 Descending Fort Worth Center
Sun 11:49:10 AM 32.4589 -93.8336 329° Northwest 123 142 400 9,250 Descending Fort Worth Center
Sun 11:50:10 AM 32.4867 -93.8572 324° Northwest 123 142 19,000 9,300 Climbing Fort Worth Center
Sun 11:51:10 AM 32.5125 -93.8808 322° Northwest 123 142 19,000  Level Fort Worth Center

Login

Don't have an account? Register now (free) for customized features, flight alerts, and more!